Impacts METAR Board
IDs:

KBMQ - Burnet Muni, TX, US

Updated at: 1200 UTC 16 Jul 2019
Potential Impact None Slight Moderate High
Time 16/00Z 16/01Z 16/02Z 16/03Z 16/04Z 16/05Z 16/06Z 16/07Z 16/08Z 16/09Z 16/10Z 16/11Z 16/12Z
Temp90 89 86 85 84 84 82 81 80 79 78 77 77
Dewpt69 69 69 71 71 72 72 73 73 73 72 71 72
Altim29.92 29.92 29.93 29.94 29.96 29.97 29.98 29.99 29.98 29.99 29.99 30.00 30.02
VIS10 10 10 10 10 10 10 10 10 10 10 10 10
CIG-- -- -- -- -- -- -- -- -- -- -- -- --
CoverCLRCLRCLRCLRCLRCLRCLRCLRCLRCLRCLRCLRFEW
FltCatVFRVFRVFRVFRVFRVFRVFRVFRVFRVFRVFRVFRVFR
WX--------------------------
WDir1601601800190170180180170170180170170
WSpd6 5 4 0 3 7 6 6 8 7 6 5 7
WGst-- -- -- -- -- -- -- -- -- -- -- -- --
Raw hourly METARs
KBMQ 152353Z AUTO 16006KT 10SM CLR 32/21 A2992 RMK AO2 SLP111 T03220206 10367 20317 56002
KBMQ 160053Z AUTO 16005KT 10SM CLR 32/21 A2992 RMK AO2 SLP113 T03170206
KBMQ 160153Z AUTO 18004KT 10SM CLR 30/21 A2993 RMK AO2 SLP115 T03000206
KBMQ 160253Z AUTO 00000KT 10SM CLR 29/22 A2994 RMK AO2 SLP118 T02940217 53007
KBMQ 160353Z AUTO 19003KT 10SM CLR 29/22 A2996 RMK AO2 SLP123 T02890217
KBMQ 160453Z AUTO 17007KT 10SM CLR 29/22 A2997 RMK AO2 SLP129 T02890222
KBMQ 160553Z AUTO 18006KT 10SM CLR 28/22 A2998 RMK AO2 SLP132 T02780222 10322 20278 403670233 51014
KBMQ 160653Z AUTO 18006KT 10SM CLR 27/23 A2999 RMK AO2 SLP132 T02720228
KBMQ 160753Z AUTO 17008KT 10SM CLR 27/23 A2998 RMK AO2 SLP131 T02670228
KBMQ 160853Z AUTO 17007KT 10SM CLR 26/23 A2999 RMK AO2 SLP132 T02610228 51001
KBMQ 160953Z AUTO 18006KT 10SM CLR 26/22 A2999 RMK AO2 SLP135 T02560222
KBMQ 161053Z AUTO 17005KT 10SM CLR 25/22 A3000 RMK AO2 SLP140 T02500217
KBMQ 161153Z AUTO 17007KT 10SM FEW012 25/22 A3002 RMK AO2 SLP145 T02500222 10278 20244 53011